createdAt,value
2023-03-22T00:00:01.045Z,22.20
2023-03-22T00:02:30.458Z,22.60
2023-03-22T00:04:57.883Z,23.60
2023-03-22T00:07:25.130Z,21.53
2023-03-22T00:09:52.335Z,24.63
2023-03-22T00:12:19.257Z,23.37
2023-03-22T00:14:46.885Z,22.43
2023-03-22T00:17:13.909Z,23.70
2023-03-22T00:19:42.300Z,22.97
2023-03-22T00:22:09.335Z,23.30
2023-03-22T00:24:37.543Z,24.03
2023-03-22T00:27:04.606Z,23.40
2023-03-22T00:29:31.827Z,24.73
2023-03-22T00:31:58.739Z,25.00
2023-03-22T00:34:27.166Z,25.87
2023-03-22T00:36:56.260Z,26.87
2023-03-22T00:39:23.493Z,25.87
2023-03-22T00:41:51.220Z,26.33
2023-03-22T00:44:18.507Z,27.17
2023-03-22T00:46:45.442Z,26.00
2023-03-22T00:49:12.710Z,27.30
2023-03-22T00:51:39.718Z,27.13
2023-03-22T00:54:06.912Z,26.17
2023-03-22T00:56:34.033Z,25.17
2023-03-22T00:59:01.286Z,25.97
2023-03-22T01:01:29.012Z,26.87
2023-03-22T01:03:56.462Z,29.70
2023-03-22T01:06:23.415Z,30.33
2023-03-22T01:08:51.035Z,28.47
2023-03-22T01:11:18.293Z,28.53
2023-03-22T01:13:45.653Z,27.40
2023-03-22T01:16:12.683Z,29.57
2023-03-22T01:18:39.954Z,29.37
2023-03-22T01:21:07.418Z,26.50
2023-03-22T01:23:34.830Z,28.50
2023-03-22T01:26:02.154Z,30.23
2023-03-22T01:28:30.279Z,31.83
2023-03-22T01:31:00.716Z,29.00
2023-03-22T01:33:27.971Z,28.03
2023-03-22T01:35:54.991Z,32.00
2023-03-22T01:38:22.311Z,30.87
2023-03-22T01:40:49.349Z,30.93
2023-03-22T01:43:17.608Z,32.60
2023-03-22T01:45:48.642Z,32.33
2023-03-22T01:48:26.108Z,28.40
2023-03-22T01:51:16.262Z,30.63
2023-03-22T01:53:48.631Z,32.17
2023-03-22T01:56:19.361Z,29.73
2023-03-22T01:58:48.346Z,31.83
2023-03-22T02:01:16.121Z,31.03
2023-03-22T02:04:03.489Z,32.17
2023-03-22T02:06:32.362Z,29.13
2023-03-22T02:08:59.617Z,32.07
2023-03-22T02:11:33.534Z,32.80
2023-03-22T02:14:23.512Z,30.73
2023-03-22T02:17:24.860Z,30.53
2023-03-22T02:20:11.113Z,31.60
2023-03-22T02:23:12.242Z,32.63
2023-03-22T02:25:54.336Z,33.63
2023-03-22T02:28:33.625Z,31.07
2023-03-22T02:31:35.997Z,30.00
2023-03-22T02:34:15.718Z,31.67
2023-03-22T02:37:16.338Z,33.40
2023-03-22T02:40:24.248Z,31.50
2023-03-22T02:42:54.341Z,31.07
2023-03-22T02:45:48.293Z,31.83
2023-03-22T02:48:19.057Z,34.57
2023-03-22T02:50:51.188Z,35.07
2023-03-22T02:53:46.184Z,33.97
2023-03-22T02:56:33.885Z,35.80
2023-03-22T02:59:06.235Z,35.80
2023-03-22T03:01:48.445Z,34.63
2023-03-22T03:04:24.638Z,36.03
2023-03-22T03:06:55.084Z,29.50
2023-03-22T03:09:23.160Z,34.03
2023-03-22T03:11:54.569Z,33.07
2023-03-22T03:14:24.527Z,34.17
2023-03-22T03:17:10.600Z,32.60
2023-03-22T03:19:48.121Z,34.17
2023-03-22T03:22:29.166Z,33.73
2023-03-22T03:25:14.231Z,33.43
2023-03-22T03:27:51.486Z,29.80
2023-03-22T03:30:28.535Z,33.60
2023-03-22T03:33:00.759Z,30.87
2023-03-22T03:35:43.733Z,30.10
2023-03-22T03:38:17.529Z,31.73
2023-03-22T03:40:50.386Z,29.47
2023-03-22T03:43:18.909Z,30.67
2023-03-22T03:45:46.779Z,29.13
2023-03-22T03:48:34.838Z,29.53
2023-03-22T03:51:02.831Z,26.53
2023-03-22T03:53:31.109Z,28.27
2023-03-22T03:55:58.373Z,27.83
2023-03-22T03:58:25.554Z,26.77
2023-03-22T04:00:52.817Z,27.57
2023-03-22T04:03:19.769Z,27.83
2023-03-22T04:05:46.957Z,25.67
2023-03-22T04:08:14.225Z,25.17
2023-03-22T04:10:41.632Z,24.07
2023-03-22T04:13:08.672Z,22.43
2023-03-22T04:15:35.935Z,24.13
2023-03-22T04:18:03.004Z,23.90
2023-03-22T04:20:30.287Z,22.70
2023-03-22T04:22:58.173Z,22.23
2023-03-22T04:25:29.914Z,23.67
2023-03-22T04:27:56.968Z,24.73
2023-03-22T04:30:24.771Z,22.37
2023-03-22T04:32:51.832Z,21.60
2023-03-22T04:35:19.141Z,21.70
2023-03-22T04:37:46.105Z,21.43
2023-03-22T04:40:16.356Z,22.20
2023-03-22T04:42:44.600Z,20.90
2023-03-22T04:45:13.530Z,21.97
2023-03-22T04:47:40.802Z,22.47
2023-03-22T04:50:09.235Z,20.17
2023-03-22T04:52:36.198Z,19.87
2023-03-22T04:55:03.572Z,20.30
2023-03-22T04:57:30.563Z,20.63
2023-03-22T04:59:57.799Z,19.13
2023-03-22T05:02:24.757Z,20.07
2023-03-22T05:04:52.037Z,20.03
2023-03-22T05:07:18.995Z,20.00
2023-03-22T05:09:46.223Z,19.87
2023-03-22T05:12:13.213Z,21.60
2023-03-22T05:14:40.701Z,20.23
2023-03-22T05:17:07.699Z,20.13
2023-03-22T05:19:34.981Z,19.70
2023-03-22T05:22:02.184Z,20.40
2023-03-22T05:24:30.631Z,19.10
2023-03-22T05:27:00.925Z,19.63
2023-03-22T05:29:28.795Z,18.87
2023-03-22T05:31:55.806Z,19.13
2023-03-22T05:34:23.158Z,18.70
2023-03-22T05:36:51.628Z,18.47
2023-03-22T05:39:19.080Z,17.07
2023-03-22T05:41:46.498Z,19.00
2023-03-22T05:44:13.773Z,19.20
2023-03-22T05:46:41.149Z,18.80
2023-03-22T05:49:09.360Z,18.87
2023-03-22T05:51:41.540Z,19.50
2023-03-22T05:54:09.735Z,19.03
2023-03-22T05:56:36.959Z,19.73
2023-03-22T05:59:05.005Z,19.30
2023-03-22T06:01:33.516Z,19.83
2023-03-22T06:04:00.965Z,19.97
2023-03-22T06:06:28.289Z,21.33
2023-03-22T06:09:04.334Z,20.50
2023-03-22T06:11:41.388Z,20.30
2023-03-22T06:14:08.618Z,20.87
2023-03-22T06:16:35.657Z,21.37
2023-03-22T06:19:02.958Z,22.53
2023-03-22T06:21:29.933Z,21.43
2023-03-22T06:23:57.175Z,22.40
2023-03-22T06:26:24.123Z,24.23
2023-03-22T06:28:51.481Z,23.33
2023-03-22T06:31:18.543Z,24.33
2023-03-22T06:33:46.508Z,21.93
2023-03-22T06:36:13.464Z,21.33
2023-03-22T06:38:40.799Z,21.13
2023-03-22T06:41:07.722Z,19.07
2023-03-22T06:43:34.950Z,18.70
2023-03-22T06:46:01.985Z,18.63
2023-03-22T06:48:29.341Z,19.03
2023-03-22T06:50:56.394Z,17.60
2023-03-22T06:53:23.597Z,17.37
2023-03-22T06:55:51.484Z,16.53
2023-03-22T06:58:19.654Z,15.93
2023-03-22T07:00:46.625Z,14.53
2023-03-22T07:03:14.018Z,14.90
2023-03-22T07:05:41.018Z,14.33
2023-03-22T07:08:08.283Z,14.37
2023-03-22T07:10:35.342Z,13.53
2023-03-22T07:13:03.259Z,14.77
2023-03-22T07:15:30.979Z,13.57
2023-03-22T07:17:59.543Z,13.47
2023-03-22T07:20:26.750Z,12.83
2023-03-22T07:22:53.994Z,13.60
2023-03-22T07:25:21.053Z,12.37
2023-03-22T07:27:48.354Z,12.60
2023-03-22T07:30:15.561Z,12.50
2023-03-22T07:32:42.819Z,12.93
2023-03-22T07:35:09.897Z,12.87
2023-03-22T07:37:37.314Z,11.67
2023-03-22T07:40:04.997Z,11.70
2023-03-22T07:42:32.433Z,11.57
2023-03-22T07:44:59.403Z,10.70
2023-03-22T07:47:39.935Z,10.93
2023-03-22T07:50:08.166Z,10.73
2023-03-22T07:52:35.684Z,10.77
2023-03-22T07:55:02.596Z,11.50
2023-03-22T07:57:29.844Z,10.70
